sensor_id;sensor_type;location;lat;lon;timestamp;P1;durP1;ratioP1;P2;durP2;ratioP2
76194;SDS011;64964;48.694;21.206;2023-03-02T00:07:11;13.50;;;5.30;;
76194;SDS011;64964;48.694;21.206;2023-03-02T00:09:39;13.05;;;5.22;;
76194;SDS011;64964;48.694;21.206;2023-03-02T00:12:05;9.97;;;5.17;;
76194;SDS011;64964;48.694;21.206;2023-03-02T00:14:31;10.85;;;5.15;;
76194;SDS011;64964;48.694;21.206;2023-03-02T00:16:57;11.70;;;5.33;;
76194;SDS011;64964;48.694;21.206;2023-03-02T00:19:22;12.25;;;5.15;;
76194;SDS011;64964;48.694;21.206;2023-03-02T00:21:48;11.97;;;4.93;;
76194;SDS011;64964;48.694;21.206;2023-03-02T00:24:13;11.93;;;5.17;;
76194;SDS011;64964;48.694;21.206;2023-03-02T00:26:40;10.55;;;5.03;;
76194;SDS011;64964;48.694;21.206;2023-03-02T00:29:05;12.70;;;5.50;;
76194;SDS011;64964;48.694;21.206;2023-03-02T00:31:31;11.33;;;5.23;;
76194;SDS011;64964;48.694;21.206;2023-03-02T00:33:57;11.40;;;4.83;;
76194;SDS011;64964;48.694;21.206;2023-03-02T00:36:22;12.32;;;5.40;;
76194;SDS011;64964;48.694;21.206;2023-03-02T00:38:48;9.23;;;4.43;;
76194;SDS011;64964;48.694;21.206;2023-03-02T00:41:16;12.60;;;5.38;;
76194;SDS011;64964;48.694;21.206;2023-03-02T00:43:42;12.55;;;5.07;;
76194;SDS011;64964;48.694;21.206;2023-03-02T00:46:11;14.93;;;5.65;;
76194;SDS011;64964;48.694;21.206;2023-03-02T00:48:39;13.50;;;5.75;;
76194;SDS011;64964;48.694;21.206;2023-03-02T00:51:05;13.70;;;5.77;;
76194;SDS011;64964;48.694;21.206;2023-03-02T00:53:31;10.50;;;5.15;;
76194;SDS011;64964;48.694;21.206;2023-03-02T00:55:57;16.08;;;6.32;;
76194;SDS011;64964;48.694;21.206;2023-03-02T00:58:24;12.13;;;5.70;;
76194;SDS011;64964;48.694;21.206;2023-03-02T01:00:50;13.35;;;5.80;;
76194;SDS011;64964;48.694;21.206;2023-03-02T01:03:15;12.80;;;5.90;;
76194;SDS011;64964;48.694;21.206;2023-03-02T01:05:41;12.97;;;5.73;;
76194;SDS011;64964;48.694;21.206;2023-03-02T01:08:06;11.73;;;5.53;;
76194;SDS011;64964;48.694;21.206;2023-03-02T01:10:32;15.20;;;6.27;;
76194;SDS011;64964;48.694;21.206;2023-03-02T01:12:57;8.37;;;4.57;;
76194;SDS011;64964;48.694;21.206;2023-03-02T01:15:23;13.27;;;5.67;;
76194;SDS011;64964;48.694;21.206;2023-03-02T01:17:48;15.73;;;5.85;;
76194;SDS011;64964;48.694;21.206;2023-03-02T01:20:14;14.33;;;5.73;;
76194;SDS011;64964;48.694;21.206;2023-03-02T01:22:40;14.75;;;5.90;;
76194;SDS011;64964;48.694;21.206;2023-03-02T01:25:07;12.93;;;6.13;;
76194;SDS011;64964;48.694;21.206;2023-03-02T01:27:33;14.43;;;6.20;;
76194;SDS011;64964;48.694;21.206;2023-03-02T01:29:58;12.93;;;5.87;;
76194;SDS011;64964;48.694;21.206;2023-03-02T01:32:23;15.53;;;6.40;;
76194;SDS011;64964;48.694;21.206;2023-03-02T01:34:49;14.13;;;5.90;;
76194;SDS011;64964;48.694;21.206;2023-03-02T01:37:14;12.83;;;5.40;;
76194;SDS011;64964;48.694;21.206;2023-03-02T01:39:39;12.13;;;5.93;;
76194;SDS011;64964;48.694;21.206;2023-03-02T01:42:05;11.87;;;5.60;;
76194;SDS011;64964;48.694;21.206;2023-03-02T01:46:59;12.57;;;5.80;;
76194;SDS011;64964;48.694;21.206;2023-03-02T01:49:24;14.35;;;6.47;;
76194;SDS011;64964;48.694;21.206;2023-03-02T01:51:51;11.77;;;5.93;;
76194;SDS011;64964;48.694;21.206;2023-03-02T01:54:18;12.00;;;5.70;;
76194;SDS011;64964;48.694;21.206;2023-03-02T01:56:50;12.02;;;5.70;;
76194;SDS011;64964;48.694;21.206;2023-03-02T01:59:20;12.27;;;5.93;;
76194;SDS011;64964;48.694;21.206;2023-03-02T02:01:50;17.08;;;6.55;;
76194;SDS011;64964;48.694;21.206;2023-03-02T02:04:19;15.02;;;6.20;;
76194;SDS011;64964;48.694;21.206;2023-03-02T02:07:03;14.63;;;6.13;;
76194;SDS011;64964;48.694;21.206;2023-03-02T02:09:31;13.27;;;5.55;;
76194;SDS011;64964;48.694;21.206;2023-03-02T02:12:00;12.45;;;5.78;;
76194;SDS011;64964;48.694;21.206;2023-03-02T02:14:25;13.07;;;5.70;;
76194;SDS011;64964;48.694;21.206;2023-03-02T02:16:51;14.52;;;5.90;;
76194;SDS011;64964;48.694;21.206;2023-03-02T02:19:23;10.70;;;5.40;;
76194;SDS011;64964;48.694;21.206;2023-03-02T02:22:13;13.20;;;6.13;;
76194;SDS011;64964;48.694;21.206;2023-03-02T02:27:10;14.13;;;6.03;;
76194;SDS011;64964;48.694;21.206;2023-03-02T02:29:38;11.70;;;6.20;;
76194;SDS011;64964;48.694;21.206;2023-03-02T02:32:20;14.60;;;6.20;;
76194;SDS011;64964;48.694;21.206;2023-03-02T02:34:53;12.40;;;5.75;;
76194;SDS011;64964;48.694;21.206;2023-03-02T02:37:27;11.23;;;5.85;;
76194;SDS011;64964;48.694;21.206;2023-03-02T02:39:57;11.30;;;5.72;;
76194;SDS011;64964;48.694;21.206;2023-03-02T02:42:33;13.23;;;6.00;;
76194;SDS011;64964;48.694;21.206;2023-03-02T02:45:03;15.30;;;6.13;;
76194;SDS011;64964;48.694;21.206;2023-03-02T02:47:31;16.10;;;5.85;;
76194;SDS011;64964;48.694;21.206;2023-03-02T02:49:56;13.93;;;5.95;;
76194;SDS011;64964;48.694;21.206;2023-03-02T02:52:23;13.10;;;6.17;;
76194;SDS011;64964;48.694;21.206;2023-03-02T02:54:52;12.68;;;5.90;;
76194;SDS011;64964;48.694;21.206;2023-03-02T02:57:18;12.40;;;6.00;;
76194;SDS011;64964;48.694;21.206;2023-03-02T02:59:49;16.00;;;6.07;;
76194;SDS011;64964;48.694;21.206;2023-03-02T03:02:18;13.75;;;6.15;;
76194;SDS011;64964;48.694;21.206;2023-03-02T03:04:46;13.20;;;5.87;;
76194;SDS011;64964;48.694;21.206;2023-03-02T03:07:15;12.65;;;5.65;;
76194;SDS011;64964;48.694;21.206;2023-03-02T03:09:44;11.35;;;5.30;;
76194;SDS011;64964;48.694;21.206;2023-03-02T03:12:16;13.80;;;5.30;;
76194;SDS011;64964;48.694;21.206;2023-03-02T03:14:48;13.15;;;5.90;;
76194;SDS011;64964;48.694;21.206;2023-03-02T03:17:14;11.02;;;5.85;;
76194;SDS011;64964;48.694;21.206;2023-03-02T03:19:40;11.23;;;5.47;;
76194;SDS011;64964;48.694;21.206;2023-03-02T03:22:08;11.88;;;5.60;;
76194;SDS011;64964;48.694;21.206;2023-03-02T03:24:38;12.55;;;5.10;;
76194;SDS011;64964;48.694;21.206;2023-03-02T03:27:05;12.85;;;5.60;;
76194;SDS011;64964;48.694;21.206;2023-03-02T03:29:33;12.47;;;5.13;;
76194;SDS011;64964;48.694;21.206;2023-03-02T03:32:00;11.05;;;5.38;;
76194;SDS011;64964;48.694;21.206;2023-03-02T03:34:27;11.55;;;5.47;;
76194;SDS011;64964;48.694;21.206;2023-03-02T03:36:53;12.98;;;5.47;;
76194;SDS011;64964;48.694;21.206;2023-03-02T03:39:29;15.40;;;6.28;;
76194;SDS011;64964;48.694;21.206;2023-03-02T03:41:55;11.60;;;4.80;;
76194;SDS011;64964;48.694;21.206;2023-03-02T03:44:21;9.65;;;4.78;;
76194;SDS011;64964;48.694;21.206;2023-03-02T03:46:46;11.23;;;4.83;;
76194;SDS011;64964;48.694;21.206;2023-03-02T03:49:12;11.47;;;5.20;;
76194;SDS011;64964;48.694;21.206;2023-03-02T03:51:37;12.20;;;5.57;;
76194;SDS011;64964;48.694;21.206;2023-03-02T03:54:03;10.50;;;4.87;;
76194;SDS011;64964;48.694;21.206;2023-03-02T03:56:33;13.43;;;5.00;;
76194;SDS011;64964;48.694;21.206;2023-03-02T03:59:01;10.73;;;5.20;;
76194;SDS011;64964;48.694;21.206;2023-03-02T04:01:35;12.03;;;5.27;;
76194;SDS011;64964;48.694;21.206;2023-03-02T04:04:08;10.23;;;4.95;;
76194;SDS011;64964;48.694;21.206;2023-03-02T04:06:35;11.85;;;5.32;;
76194;SDS011;64964;48.694;21.206;2023-03-02T04:09:01;10.90;;;4.97;;
76194;SDS011;64964;48.694;21.206;2023-03-02T04:11:28;12.65;;;5.15;;
76194;SDS011;64964;48.694;21.206;2023-03-02T04:13:57;11.43;;;4.85;;
76194;SDS011;64964;48.694;21.206;2023-03-02T04:16:23;14.50;;;5.17;;
76194;SDS011;64964;48.694;21.206;2023-03-02T04:18:48;12.20;;;5.67;;
76194;SDS011;64964;48.694;21.206;2023-03-02T04:21:14;10.47;;;5.30;;
76194;SDS011;64964;48.694;21.206;2023-03-02T04:23:39;11.43;;;5.40;;
76194;SDS011;64964;48.694;21.206;2023-03-02T04:26:04;11.97;;;5.30;;
76194;SDS011;64964;48.694;21.206;2023-03-02T04:28:30;11.77;;;5.13;;
76194;SDS011;64964;48.694;21.206;2023-03-02T04:30:56;11.13;;;5.65;;
76194;SDS011;64964;48.694;21.206;2023-03-02T04:33:21;11.43;;;5.47;;
76194;SDS011;64964;48.694;21.206;2023-03-02T04:35:47;10.38;;;5.13;;
76194;SDS011;64964;48.694;21.206;2023-03-02T04:38:12;11.77;;;5.40;;
76194;SDS011;64964;48.694;21.206;2023-03-02T04:40:38;9.80;;;4.77;;
76194;SDS011;64964;48.694;21.206;2023-03-02T04:43:03;11.65;;;5.40;;
76194;SDS011;64964;48.694;21.206;2023-03-02T04:45:28;12.47;;;5.60;;
76194;SDS011;64964;48.694;21.206;2023-03-02T04:47:54;14.03;;;5.90;;
76194;SDS011;64964;48.694;21.206;2023-03-02T04:50:19;11.03;;;5.47;;
76194;SDS011;64964;48.694;21.206;2023-03-02T04:52:45;11.57;;;4.85;;
76194;SDS011;64964;48.694;21.206;2023-03-02T04:55:18;15.97;;;5.60;;
76194;SDS011;64964;48.694;21.206;2023-03-02T04:57:45;12.23;;;5.40;;
76194;SDS011;64964;48.694;21.206;2023-03-02T05:00:11;10.73;;;5.00;;
76194;SDS011;64964;48.694;21.206;2023-03-02T05:02:37;12.65;;;5.78;;
76194;SDS011;64964;48.694;21.206;2023-03-02T05:05:03;9.95;;;5.07;;
76194;SDS011;64964;48.694;21.206;2023-03-02T05:07:29;12.33;;;5.30;;
76194;SDS011;64964;48.694;21.206;2023-03-02T05:09:54;12.90;;;5.40;;
76194;SDS011;64964;48.694;21.206;2023-03-02T05:12:19;13.40;;;5.63;;
76194;SDS011;64964;48.694;21.206;2023-03-02T05:14:45;11.68;;;5.25;;
76194;SDS011;64964;48.694;21.206;2023-03-02T05:17:11;12.10;;;5.50;;
76194;SDS011;64964;48.694;21.206;2023-03-02T05:19:36;11.97;;;5.67;;
76194;SDS011;64964;48.694;21.206;2023-03-02T05:22:02;12.07;;;5.22;;
76194;SDS011;64964;48.694;21.206;2023-03-02T05:24:27;12.03;;;4.83;;
76194;SDS011;64964;48.694;21.206;2023-03-02T05:26:52;10.43;;;5.17;;
76194;SDS011;64964;48.694;21.206;2023-03-02T05:29:18;11.90;;;5.28;;
76194;SDS011;64964;48.694;21.206;2023-03-02T05:31:44;10.83;;;5.67;;
76194;SDS011;64964;48.694;21.206;2023-03-02T05:34:11;12.85;;;6.00;;
76194;SDS011;64964;48.694;21.206;2023-03-02T05:36:37;12.53;;;5.47;;
76194;SDS011;64964;48.694;21.206;2023-03-02T05:39:04;11.77;;;4.90;;
76194;SDS011;64964;48.694;21.206;2023-03-02T05:41:31;10.65;;;5.07;;
76194;SDS011;64964;48.694;21.206;2023-03-02T05:43:56;10.47;;;5.00;;
76194;SDS011;64964;48.694;21.206;2023-03-02T05:46:22;12.23;;;5.27;;
76194;SDS011;64964;48.694;21.206;2023-03-02T05:48:47;12.27;;;5.47;;
76194;SDS011;64964;48.694;21.206;2023-03-02T05:51:12;12.37;;;5.27;;
76194;SDS011;64964;48.694;21.206;2023-03-02T05:53:38;10.77;;;4.77;;
76194;SDS011;64964;48.694;21.206;2023-03-02T05:56:03;9.87;;;4.87;;
76194;SDS011;64964;48.694;21.206;2023-03-02T05:58:29;11.20;;;5.50;;
76194;SDS011;64964;48.694;21.206;2023-03-02T06:00:54;10.47;;;5.03;;
76194;SDS011;64964;48.694;21.206;2023-03-02T06:03:20;13.27;;;5.50;;
76194;SDS011;64964;48.694;21.206;2023-03-02T06:05:45;12.32;;;5.25;;
76194;SDS011;64964;48.694;21.206;2023-03-02T06:08:18;10.60;;;4.80;;
76194;SDS011;64964;48.694;21.206;2023-03-02T06:10:45;10.75;;;5.47;;
76194;SDS011;64964;48.694;21.206;2023-03-02T06:13:11;14.43;;;5.15;;
76194;SDS011;64964;48.694;21.206;2023-03-02T06:15:36;10.20;;;5.03;;
76194;SDS011;64964;48.694;21.206;2023-03-02T06:18:04;10.15;;;4.75;;
76194;SDS011;64964;48.694;21.206;2023-03-02T06:20:30;11.10;;;5.90;;
76194;SDS011;64964;48.694;21.206;2023-03-02T06:22:55;11.07;;;5.13;;
76194;SDS011;64964;48.694;21.206;2023-03-02T06:25:21;10.40;;;5.00;;
76194;SDS011;64964;48.694;21.206;2023-03-02T06:27:48;10.68;;;5.20;;
76194;SDS011;64964;48.694;21.206;2023-03-02T06:30:16;11.00;;;5.18;;
76194;SDS011;64964;48.694;21.206;2023-03-02T06:32:43;10.95;;;4.95;;
76194;SDS011;64964;48.694;21.206;2023-03-02T06:35:10;11.77;;;5.03;;
76194;SDS011;64964;48.694;21.206;2023-03-02T06:37:36;9.98;;;5.47;;
76194;SDS011;64964;48.694;21.206;2023-03-02T06:40:02;11.13;;;5.35;;
76194;SDS011;64964;48.694;21.206;2023-03-02T06:42:35;9.90;;;4.85;;
76194;SDS011;64964;48.694;21.206;2023-03-02T06:45:01;12.30;;;5.60;;
76194;SDS011;64964;48.694;21.206;2023-03-02T06:47:27;11.82;;;4.82;;
76194;SDS011;64964;48.694;21.206;2023-03-02T06:49:53;10.77;;;5.50;;
76194;SDS011;64964;48.694;21.206;2023-03-02T06:52:18;9.97;;;4.50;;
76194;SDS011;64964;48.694;21.206;2023-03-02T06:54:43;10.77;;;5.17;;
76194;SDS011;64964;48.694;21.206;2023-03-02T06:57:09;9.37;;;4.50;;
76194;SDS011;64964;48.694;21.206;2023-03-02T06:59:34;10.63;;;5.40;;
76194;SDS011;64964;48.694;21.206;2023-03-02T07:01:59;10.17;;;4.43;;
76194;SDS011;64964;48.694;21.206;2023-03-02T07:04:25;10.30;;;4.68;;
76194;SDS011;64964;48.694;21.206;2023-03-02T07:06:54;10.88;;;4.85;;
76194;SDS011;64964;48.694;21.206;2023-03-02T07:09:19;9.77;;;5.07;;
76194;SDS011;64964;48.694;21.206;2023-03-02T07:11:45;10.43;;;4.43;;
76194;SDS011;64964;48.694;21.206;2023-03-02T07:14:10;12.38;;;4.68;;
76194;SDS011;64964;48.694;21.206;2023-03-02T07:16:36;12.00;;;4.93;;
76194;SDS011;64964;48.694;21.206;2023-03-02T07:19:01;10.10;;;4.17;;
76194;SDS011;64964;48.694;21.206;2023-03-02T07:21:26;10.33;;;5.40;;
76194;SDS011;64964;48.694;21.206;2023-03-02T07:23:52;9.82;;;4.85;;
76194;SDS011;64964;48.694;21.206;2023-03-02T07:26:17;9.93;;;4.27;;
76194;SDS011;64964;48.694;21.206;2023-03-02T07:28:42;9.00;;;4.67;;
76194;SDS011;64964;48.694;21.206;2023-03-02T07:31:08;9.77;;;4.70;;
76194;SDS011;64964;48.694;21.206;2023-03-02T07:33:35;9.83;;;5.10;;
76194;SDS011;64964;48.694;21.206;2023-03-02T07:36:01;10.90;;;4.68;;
76194;SDS011;64964;48.694;21.206;2023-03-02T07:38:27;10.43;;;5.13;;
76194;SDS011;64964;48.694;21.206;2023-03-02T07:40:52;10.37;;;5.67;;
76194;SDS011;64964;48.694;21.206;2023-03-02T07:43:18;31.05;;;6.30;;
76194;SDS011;64964;48.694;21.206;2023-03-02T07:45:44;13.45;;;5.25;;
76194;SDS011;64964;48.694;21.206;2023-03-02T07:48:09;7.27;;;4.63;;
76194;SDS011;64964;48.694;21.206;2023-03-02T07:50:35;9.03;;;5.50;;
76194;SDS011;64964;48.694;21.206;2023-03-02T07:53:00;9.13;;;5.22;;
76194;SDS011;64964;48.694;21.206;2023-03-02T07:55:26;9.07;;;5.27;;
76194;SDS011;64964;48.694;21.206;2023-03-02T07:57:51;7.70;;;5.43;;
76194;SDS011;64964;48.694;21.206;2023-03-02T08:00:17;7.78;;;4.97;;
76194;SDS011;64964;48.694;21.206;2023-03-02T08:02:43;7.80;;;5.18;;
76194;SDS011;64964;48.694;21.206;2023-03-02T08:05:09;8.37;;;5.00;;
76194;SDS011;64964;48.694;21.206;2023-03-02T08:07:36;9.45;;;5.55;;
76194;SDS011;64964;48.694;21.206;2023-03-02T08:10:02;8.55;;;5.32;;
76194;SDS011;64964;48.694;21.206;2023-03-02T08:12:28;8.52;;;5.22;;
76194;SDS011;64964;48.694;21.206;2023-03-02T08:14:54;8.50;;;5.27;;
76194;SDS011;64964;48.694;21.206;2023-03-02T08:17:20;8.93;;;5.63;;
76194;SDS011;64964;48.694;21.206;2023-03-02T08:19:45;8.70;;;5.20;;
76194;SDS011;64964;48.694;21.206;2023-03-02T08:22:11;8.82;;;5.40;;
76194;SDS011;64964;48.694;21.206;2023-03-02T08:24:36;11.13;;;5.10;;
76194;SDS011;64964;48.694;21.206;2023-03-02T08:27:02;9.30;;;5.33;;
76194;SDS011;64964;48.694;21.206;2023-03-02T08:29:28;8.93;;;5.20;;
76194;SDS011;64964;48.694;21.206;2023-03-02T08:31:54;7.95;;;5.07;;
76194;SDS011;64964;48.694;21.206;2023-03-02T08:34:19;11.03;;;5.70;;
76194;SDS011;64964;48.694;21.206;2023-03-02T08:36:45;7.33;;;4.87;;
76194;SDS011;64964;48.694;21.206;2023-03-02T08:39:10;11.25;;;5.18;;
76194;SDS011;64964;48.694;21.206;2023-03-02T08:41:36;7.40;;;5.23;;
76194;SDS011;64964;48.694;21.206;2023-03-02T08:44:01;7.87;;;5.67;;
76194;SDS011;64964;48.694;21.206;2023-03-02T08:46:27;10.00;;;5.05;;
76194;SDS011;64964;48.694;21.206;2023-03-02T08:48:52;8.00;;;5.40;;
76194;SDS011;64964;48.694;21.206;2023-03-02T08:51:22;6.70;;;4.60;;
76194;SDS011;64964;48.694;21.206;2023-03-02T08:53:49;6.50;;;4.43;;
76194;SDS011;64964;48.694;21.206;2023-03-02T08:56:17;7.40;;;5.10;;
76194;SDS011;64964;48.694;21.206;2023-03-02T08:58:49;7.00;;;4.82;;
76194;SDS011;64964;48.694;21.206;2023-03-02T09:01:16;6.75;;;4.72;;
76194;SDS011;64964;48.694;21.206;2023-03-02T09:03:50;8.30;;;4.95;;
76194;SDS011;64964;48.694;21.206;2023-03-02T09:06:16;7.03;;;4.60;;
76194;SDS011;64964;48.694;21.206;2023-03-02T09:08:41;9.38;;;4.80;;
76194;SDS011;64964;48.694;21.206;2023-03-02T09:11:07;7.43;;;5.07;;
76194;SDS011;64964;48.694;21.206;2023-03-02T09:13:33;7.30;;;4.40;;
76194;SDS011;64964;48.694;21.206;2023-03-02T09:15:59;7.45;;;4.28;;
76194;SDS011;64964;48.694;21.206;2023-03-02T09:18:25;6.07;;;4.18;;
76194;SDS011;64964;48.694;21.206;2023-03-02T09:20:52;5.77;;;3.80;;
76194;SDS011;64964;48.694;21.206;2023-03-02T09:23:20;6.40;;;3.90;;
76194;SDS011;64964;48.694;21.206;2023-03-02T09:25:46;6.85;;;3.97;;
76194;SDS011;64964;48.694;21.206;2023-03-02T09:28:12;5.38;;;3.80;;
76194;SDS011;64964;48.694;21.206;2023-03-02T09:30:38;5.72;;;4.07;;
76194;SDS011;64964;48.694;21.206;2023-03-02T09:33:04;5.57;;;3.70;;
76194;SDS011;64964;48.694;21.206;2023-03-02T09:35:29;6.43;;;4.07;;
76194;SDS011;64964;48.694;21.206;2023-03-02T09:37:55;6.57;;;4.60;;
76194;SDS011;64964;48.694;21.206;2023-03-02T09:40:21;5.05;;;3.55;;
76194;SDS011;64964;48.694;21.206;2023-03-02T09:46:08;5.30;;;3.70;;
76194;SDS011;64964;48.694;21.206;2023-03-02T09:48:50;7.43;;;4.40;;
76194;SDS011;64964;48.694;21.206;2023-03-02T09:54:54;5.50;;;3.55;;
76194;SDS011;64964;48.694;21.206;2023-03-02T09:57:23;6.72;;;3.47;;
76194;SDS011;64964;48.694;21.206;2023-03-02T09:59:55;8.52;;;3.63;;
76194;SDS011;64964;48.694;21.206;2023-03-02T10:02:43;6.15;;;3.50;;
76194;SDS011;64964;48.694;21.206;2023-03-02T10:05:19;6.60;;;3.50;;
76194;SDS011;64964;48.694;21.206;2023-03-02T10:07:52;6.97;;;3.40;;
76194;SDS011;64964;48.694;21.206;2023-03-02T10:10:22;7.40;;;3.75;;
76194;SDS011;64964;48.694;21.206;2023-03-02T10:13:04;5.80;;;3.67;;
76194;SDS011;64964;48.694;21.206;2023-03-02T10:23:58;7.68;;;4.20;;
76194;SDS011;64964;48.694;21.206;2023-03-02T10:31:44;9.52;;;4.50;;
76194;SDS011;64964;48.694;21.206;2023-03-02T10:34:13;8.60;;;3.38;;
76194;SDS011;64964;48.694;21.206;2023-03-02T10:36:41;6.90;;;3.47;;
76194;SDS011;64964;48.694;21.206;2023-03-02T10:39:15;5.30;;;3.43;;
76194;SDS011;64964;48.694;21.206;2023-03-02T10:44:30;5.20;;;3.50;;
76194;SDS011;64964;48.694;21.206;2023-03-02T10:47:01;4.70;;;3.08;;
76194;SDS011;64964;48.694;21.206;2023-03-02T10:49:29;4.18;;;2.97;;
76194;SDS011;64964;48.694;21.206;2023-03-02T10:52:13;4.33;;;2.80;;
76194;SDS011;64964;48.694;21.206;2023-03-02T10:54:40;5.57;;;2.80;;
76194;SDS011;64964;48.694;21.206;2023-03-02T10:57:25;4.95;;;3.05;;
76194;SDS011;64964;48.694;21.206;2023-03-02T10:59:59;5.32;;;3.00;;
76194;SDS011;64964;48.694;21.206;2023-03-02T11:02:30;7.05;;;3.03;;
76194;SDS011;64964;48.694;21.206;2023-03-02T11:05:17;4.68;;;2.65;;
76194;SDS011;64964;48.694;21.206;2023-03-02T11:08:04;5.15;;;3.20;;
76194;SDS011;64964;48.694;21.206;2023-03-02T11:10:35;4.15;;;2.80;;
76194;SDS011;64964;48.694;21.206;2023-03-02T11:13:48;4.40;;;2.88;;
76194;SDS011;64964;48.694;21.206;2023-03-02T11:15:56;6.05;;;3.22;;
76194;SDS011;64964;48.694;21.206;2023-03-02T11:21:00;5.07;;;3.43;;
76194;SDS011;64964;48.694;21.206;2023-03-02T11:28:59;7.82;;;3.50;;
76194;SDS011;64964;48.694;21.206;2023-03-02T11:31:33;5.05;;;3.22;;
76194;SDS011;64964;48.694;21.206;2023-03-02T11:34:15;7.50;;;3.90;;
76194;SDS011;64964;48.694;21.206;2023-03-02T11:37:00;4.68;;;3.60;;
76194;SDS011;64964;48.694;21.206;2023-03-02T11:39:38;5.47;;;3.53;;
76194;SDS011;64964;48.694;21.206;2023-03-02T11:42:19;5.90;;;3.25;;
76194;SDS011;64964;48.694;21.206;2023-03-02T11:44:54;4.10;;;3.00;;
76194;SDS011;64964;48.694;21.206;2023-03-02T11:47:20;13.43;;;4.10;;
76194;SDS011;64964;48.694;21.206;2023-03-02T11:49:48;7.05;;;3.60;;
76194;SDS011;64964;48.694;21.206;2023-03-02T11:52:22;7.32;;;4.32;;
76194;SDS011;64964;48.694;21.206;2023-03-02T11:57:24;6.43;;;3.90;;
76194;SDS011;64964;48.694;21.206;2023-03-02T11:59:53;7.22;;;4.10;;
76194;SDS011;64964;48.694;21.206;2023-03-02T12:02:20;18.63;;;10.30;;
76194;SDS011;64964;48.694;21.206;2023-03-02T12:04:46;8.03;;;4.43;;
76194;SDS011;64964;48.694;21.206;2023-03-02T12:07:17;7.13;;;4.10;;
76194;SDS011;64964;48.694;21.206;2023-03-02T12:09:57;5.20;;;3.58;;
76194;SDS011;64964;48.694;21.206;2023-03-02T12:12:32;7.38;;;3.92;;
76194;SDS011;64964;48.694;21.206;2023-03-02T12:14:58;6.05;;;3.92;;
76194;SDS011;64964;48.694;21.206;2023-03-02T12:19:54;6.77;;;3.97;;
76194;SDS011;64964;48.694;21.206;2023-03-02T12:22:32;9.77;;;4.00;;
76194;SDS011;64964;48.694;21.206;2023-03-02T12:25:00;6.83;;;4.37;;
76194;SDS011;64964;48.694;21.206;2023-03-02T12:27:47;5.97;;;3.80;;
76194;SDS011;64964;48.694;21.206;2023-03-02T12:35:34;8.07;;;4.20;;
76194;SDS011;64964;48.694;21.206;2023-03-02T12:38:02;14.50;;;4.40;;
76194;SDS011;64964;48.694;21.206;2023-03-02T12:40:51;9.40;;;4.32;;
76194;SDS011;64964;48.694;21.206;2023-03-02T12:43:35;8.23;;;4.07;;
76194;SDS011;64964;48.694;21.206;2023-03-02T12:54:15;6.73;;;3.77;;
76194;SDS011;64964;48.694;21.206;2023-03-02T12:56:45;7.00;;;3.80;;
76194;SDS011;64964;48.694;21.206;2023-03-02T12:59:24;5.80;;;3.97;;
76194;SDS011;64964;48.694;21.206;2023-03-02T13:02:02;5.85;;;3.50;;
76194;SDS011;64964;48.694;21.206;2023-03-02T13:04:39;6.65;;;3.70;;
76194;SDS011;64964;48.694;21.206;2023-03-02T13:07:04;7.57;;;3.70;;
76194;SDS011;64964;48.694;21.206;2023-03-02T13:09:31;8.00;;;3.58;;
76194;SDS011;64964;48.694;21.206;2023-03-02T13:11:56;5.73;;;3.47;;
76194;SDS011;64964;48.694;21.206;2023-03-02T13:14:25;4.95;;;3.20;;
76194;SDS011;64964;48.694;21.206;2023-03-02T13:16:56;11.10;;;4.67;;
76194;SDS011;64964;48.694;21.206;2023-03-02T13:19:24;7.88;;;3.70;;
76194;SDS011;64964;48.694;21.206;2023-03-02T13:21:51;7.80;;;4.15;;
76194;SDS011;64964;48.694;21.206;2023-03-02T13:27:21;6.80;;;3.10;;
76194;SDS011;64964;48.694;21.206;2023-03-02T13:29:48;15.70;;;3.38;;
76194;SDS011;64964;48.694;21.206;2023-03-02T13:32:16;5.40;;;3.28;;
76194;SDS011;64964;48.694;21.206;2023-03-02T13:34:52;6.70;;;3.25;;
76194;SDS011;64964;48.694;21.206;2023-03-02T13:39:59;6.30;;;3.47;;
76194;SDS011;64964;48.694;21.206;2023-03-02T13:42:28;6.05;;;3.38;;
76194;SDS011;64964;48.694;21.206;2023-03-02T13:47:56;7.28;;;3.05;;
76194;SDS011;64964;48.694;21.206;2023-03-02T13:50:25;5.68;;;3.17;;
76194;SDS011;64964;48.694;21.206;2023-03-02T13:52:56;5.30;;;2.90;;
76194;SDS011;64964;48.694;21.206;2023-03-02T13:55:24;6.15;;;2.80;;
76194;SDS011;64964;48.694;21.206;2023-03-02T13:57:51;6.80;;;3.20;;
76194;SDS011;64964;48.694;21.206;2023-03-02T14:00:27;7.10;;;2.95;;
76194;SDS011;64964;48.694;21.206;2023-03-02T14:02:58;5.30;;;3.30;;
76194;SDS011;64964;48.694;21.206;2023-03-02T14:05:24;6.53;;;3.20;;
76194;SDS011;64964;48.694;21.206;2023-03-02T14:07:51;9.27;;;3.20;;
76194;SDS011;64964;48.694;21.206;2023-03-02T14:10:17;7.00;;;2.60;;
76194;SDS011;64964;48.694;21.206;2023-03-02T14:12:54;6.03;;;2.80;;
76194;SDS011;64964;48.694;21.206;2023-03-02T14:15:23;7.07;;;2.78;;
76194;SDS011;64964;48.694;21.206;2023-03-02T14:17:49;6.37;;;3.20;;
76194;SDS011;64964;48.694;21.206;2023-03-02T14:20:15;5.82;;;2.67;;
76194;SDS011;64964;48.694;21.206;2023-03-02T14:22:43;4.27;;;2.70;;
76194;SDS011;64964;48.694;21.206;2023-03-02T14:25:09;4.15;;;2.42;;
76194;SDS011;64964;48.694;21.206;2023-03-02T14:27:34;3.77;;;2.40;;
76194;SDS011;64964;48.694;21.206;2023-03-02T14:30:01;6.05;;;2.50;;
76194;SDS011;64964;48.694;21.206;2023-03-02T14:32:32;5.05;;;2.40;;
76194;SDS011;64964;48.694;21.206;2023-03-02T14:34:57;5.03;;;2.20;;
76194;SDS011;64964;48.694;21.206;2023-03-02T14:37:23;2.97;;;2.10;;
76194;SDS011;64964;48.694;21.206;2023-03-02T14:39:52;4.03;;;2.03;;
76194;SDS011;64964;48.694;21.206;2023-03-02T14:42:19;5.40;;;2.28;;
76194;SDS011;64964;48.694;21.206;2023-03-02T14:44:46;7.22;;;2.88;;
76194;SDS011;64964;48.694;21.206;2023-03-02T14:47:13;7.88;;;3.13;;
76194;SDS011;64964;48.694;21.206;2023-03-02T14:49:40;5.88;;;3.00;;
76194;SDS011;64964;48.694;21.206;2023-03-02T14:52:18;5.00;;;2.70;;
76194;SDS011;64964;48.694;21.206;2023-03-02T14:57:19;6.47;;;2.67;;
76194;SDS011;64964;48.694;21.206;2023-03-02T14:59:46;2.85;;;1.83;;
76194;SDS011;64964;48.694;21.206;2023-03-02T15:02:12;2.88;;;1.60;;
76194;SDS011;64964;48.694;21.206;2023-03-02T15:04:38;3.80;;;2.00;;
76194;SDS011;64964;48.694;21.206;2023-03-02T15:07:04;4.40;;;1.70;;
76194;SDS011;64964;48.694;21.206;2023-03-02T15:09:29;3.00;;;1.70;;
76194;SDS011;64964;48.694;21.206;2023-03-02T15:11:54;3.93;;;1.70;;
76194;SDS011;64964;48.694;21.206;2023-03-02T15:14:20;7.47;;;2.70;;
76194;SDS011;64964;48.694;21.206;2023-03-02T15:16:45;4.50;;;1.90;;
76194;SDS011;64964;48.694;21.206;2023-03-02T15:19:11;4.28;;;1.60;;
76194;SDS011;64964;48.694;21.206;2023-03-02T15:21:36;1.97;;;1.33;;
76194;SDS011;64964;48.694;21.206;2023-03-02T15:24:05;2.13;;;1.58;;
76194;SDS011;64964;48.694;21.206;2023-03-02T15:26:31;3.33;;;1.43;;
76194;SDS011;64964;48.694;21.206;2023-03-02T15:28:56;4.90;;;1.63;;
76194;SDS011;64964;48.694;21.206;2023-03-02T15:31:21;7.10;;;2.30;;
76194;SDS011;64964;48.694;21.206;2023-03-02T15:33:47;3.53;;;1.70;;
76194;SDS011;64964;48.694;21.206;2023-03-02T15:36:15;3.40;;;1.83;;
76194;SDS011;64964;48.694;21.206;2023-03-02T15:38:40;2.50;;;1.47;;
76194;SDS011;64964;48.694;21.206;2023-03-02T15:41:09;3.13;;;1.90;;
76194;SDS011;64964;48.694;21.206;2023-03-02T15:43:37;3.78;;;1.70;;
76194;SDS011;64964;48.694;21.206;2023-03-02T15:46:04;5.50;;;1.90;;